• Join FlightAware (Why Join?)
  • Login
  • US Flag 
01:30PM EDT


 

Airport Tracker/Info


-or-


 

Live Flight TrackerFlight Track Log ✈ GJS3710 ✈ 09-Aug-2013 ✈ KORD - KALB

Flight Track Log - Related Links

Times and Time Zones

All times are in EDT time to prevent confusion due to time zone crossing. See the GJS3710 flight status page for this flight to view local times or setup timezone preferences in your user account.

Time Position Orientation Groundspeed Altitude Reporting Facility
EDT Latitude Longitude Course Direction KTS MPH feet Rate Location/Type
10:03PM 42.0000 -87.9333 66° East 166 191 1,600  Level Chicago TRACON
10:04PM 42.0333 -87.9167 20° North 211 243 3,300 1,920 Climbing Chicago TRACON
10:05PM 42.0833 -87.8500 45° Northeast 254 292 5,300 1,920 Climbing Chicago TRACON
10:06PM 42.1119 -87.8183 39° Northeast 261 300 6,400 2,340 Climbing Chicago Center
10:07PM 42.1517 -87.7242 60° Northeast 295 339 9,100 2,460 Climbing Chicago Center
10:08PM 42.2361 -87.1416 66° East  Level FlightAware Approximate
10:08PM 42.1736 -87.6097 75° East 313 360 11,500  Level Chicago Center
10:09PM 42.1981 -87.4839 75° East 346 398 12,900 1,560 Climbing Chicago Center
10:10PM 42.2319 -87.3125 75° East 394 453 14,700 1,620 Climbing Chicago Center
10:11PM 42.2592 -87.1614 76° East 414 476 16,300 1,560 Climbing Chicago Center
10:12PM 42.2825 -87.0072 78° East 420 483 17,900 1,560 Climbing Chicago Center
10:13PM 42.2869 -86.8475 88° East 427 491 19,600 1,620 Climbing Chicago Center
10:14PM 42.2944 -86.6686 87° East 432 497 21,300 1,500 Climbing Chicago Center
10:15PM 42.3011 -86.5042 87° East 441 507 22,700 1,260 Climbing Chicago Center
10:16PM 42.3069 -86.3358 87° East 448 516 24,000 1,260 Climbing Chicago Center
10:17PM 42.3125 -86.1650 87° East 456 525 25,300 1,140 Climbing Chicago Center
10:18PM 42.3144 -85.9933 89° East 461 531 26,400 1,020 Climbing Chicago Center
10:19PM 42.3114 -85.8172 91° East 471 542 27,400 780 Climbing Chicago Center
10:20PM 42.3094 -85.6356 91° East 483 556 28,100 780 Climbing Chicago Center
10:21PM 42.3064 -85.4081 91° East 503 579 29,000 780 Climbing Chicago Center
10:22PM 42.3033 -85.2158 91° East 512 589 29,700 660 Climbing Chicago Center
10:23PM 42.2997 -85.0225 91° East 518 596 30,400 660 Climbing Chicago Center
10:24PM 42.2964 -84.8269 91° East 523 602 31,100 660 Climbing Chicago Center
10:25PM 42.2900 -84.6311 92° East 524 603 31,800 540 Climbing Chicago Center
10:26PM 42.2933 -84.4331 89° East 531 611 32,300 540 Climbing Chicago Center
10:27PM 42.3106 -84.2981 80° East 523 602 32,700 780 Climbing Cleveland Center
10:28PM 42.3375 -84.1003 79° East 533 613 33,600 960 Climbing Cleveland Center
10:29PM 42.3664 -83.9050 79° East 533 613 34,700 840 Climbing Cleveland Center
10:30PM 42.3947 -83.7069 79° East 538 619 35,300 660 Climbing Cleveland Center
10:31PM 42.4092 -83.4825 85° East 555 639 36,100 720 Climbing Cleveland Center
10:32PM 42.4183 -83.2750 87° East 544 626 36,800 660 Climbing Cleveland Center
10:33PM 42.4250 -83.0725 87° East 544 626 37,500 660 Climbing Cleveland Center
10:34PM 42.4311 -82.8703 88° East 544 626 38,200 660 Climbing Cleveland Center
10:35PM 42.4392 -82.6681 87° East 534 615 38,900 360 Climbing Cleveland Center
10:36PM 42.4425 -82.4711 89° East 527 606 39,000  Climbing Cleveland Center
10:37PM 42.4500 -82.2717 87° East 532 612 39,000  Level Cleveland Center
10:38PM 42.4542 -82.1083 88° East 537 618 39,000  Level Cleveland Center
10:39PM 42.4614 -81.8553 88° East 546 628 39,000  Level Cleveland Center
10:40PM 42.4678 -81.6500 88° East 551 634 39,000  Level Cleveland Center
10:41PM 42.4694 -81.4361 89° East 556 640 39,000  Level Cleveland Center
10:42PM 42.4750 -81.2278 88° East 550 633 39,000  Level Cleveland Center
10:43PM 42.4781 -81.0194 89° East 550 633 39,000  Level Cleveland Center
10:44PM 42.4786 -80.8111 90° East 550 633 39,000  Level Cleveland Center
10:45PM 42.4831 -80.6225 88° East 555 639 39,000  Level Cleveland Center
10:46PM 42.4831 -80.4086 90° East 555 639 39,000  Level Cleveland Center
10:47PM 42.4867 -80.2031 89° East 547 629 39,000  Level Cleveland Center
10:48PM 42.4878 -79.9947 90° East 555 639 39,000  Level Cleveland Center
10:49PM 42.4908 -79.7864 89° East 550 633 39,000  Level Cleveland Center
10:50PM 42.4956 -79.5778 88° East 550 633 39,000  Level Cleveland Center
10:51PM 42.4914 -79.3697 91° East 550 633 39,000  Level Cleveland Center
10:52PM 42.5014 -79.1639 86° East 550 633 39,000  Level Cleveland Center
10:53PM 42.5133 -78.9550 85° East 555 639 39,000  Level Cleveland Center
10:54PM 42.5289 -78.7461 84° East 555 639 39,000  Level Cleveland Center
10:55PM 42.5422 -78.5372 85° East 555 639 39,000  Level Cleveland Center
10:56PM 42.5550 -78.3283 85° East 555 639 39,000  Level Cleveland Center
10:57PM 42.5675 -78.1219 85° East 555 639 39,000  Level Cleveland Center
10:58PM 42.5794 -77.9128 85° East 555 639 39,000 -600 Level Cleveland Center
10:59PM 42.5947 -77.6836 85° East 555 639 37,800 -1,740 Descending Cleveland Center
11:00PM 42.6058 -77.4717 86° East 560 644 35,600 -2,100 Descending Cleveland Center
11:02PM 42.6303 -76.9872 86° East 566 651 30,700 -1,980 Descending Boston Center
11:03PM 42.6431 -76.7733 85° East 561 646 29,000 -900 Descending Boston Center
11:04PM 42.6506 -76.5650 87° East 554 638 29,000  Level Boston Center
11:05PM 42.6622 -76.3567 86° East 549 632 29,000 -240 Level Boston Center
11:06PM 42.6761 -76.1258 85° East 549 632 28,600 -1,380 Descending Boston Center
11:07PM 42.6808 -75.9169 88° East 549 632 26,300 -2,460 Descending Boston Center
11:08PM 42.6883 -75.7311 87° East 525 604 23,800 -2,280 Descending Boston Center
11:09PM 42.6953 -75.5533 87° East 493 567 21,800 -2,040 Descending Boston Center
11:10PM 42.7003 -75.3728 88° East 478 550 19,800 -1,920 Descending Boston Center
11:11PM 42.7089 -75.1981 86° East 478 550 17,900 -1,800 Descending Boston Center
11:12PM 42.7147 -75.0314 87° East 466 536 16,200 -1,860 Descending Boston Center
11:13PM 42.7203 -74.8764 87° East 429 494 14,400 -1,740 Descending Boston Center
11:14PM 42.7217 -74.7094 89° East 422 486 12,700 -1,620 Descending Boston Center
11:15PM 42.7161 -74.5567 93° East 407 468 11,100 -1,200 Descending Boston Center
11:16PM 42.6872 -74.4286 107° East 362 417 10,400 -1,020 Descending Boston Center
11:17PM 42.6642 -74.3119 105° East 334 384 9,100 -1,740 Descending Boston Center
11:18PM 42.6411 -74.1986 105° East 314 361 7,000 -1,860 Descending Boston Center
11:19PM 42.6175 -74.0933 107° East 299 344 5,500 -1,560 Descending Boston Center
11:20PM 42.5961 -73.9886 105° East 289 333 4,000 -1,140 Descending Boston Center
11:21PM 42.5706 -73.8667 106° East 283 326 3,000 -840 Descending Boston Center
11:22PM 42.5964 -73.8022 61° Northeast 237 273 2,400 -600 Descending Boston Center
11:23PM 42.6281 -73.7664 40° Northeast 183 211 2,000 -600 Descending Boston Center
11:24PM 42.6922 -73.8072 335° Northwest 113 130 1,100 -720 Descending Boston Center
11:25PM 42.7297 -73.8081 359° North 125 144 500 -600 Descending Boston Center